Station: ELLX - 24/04/2019 13:20Z (il y a 32 minutes)
ELLX 241320Z 22013KT 190V250 9999 FEW045 BKN060 19/08 Q1002 NOSIG
Vent du 220º - 13 kt (vent de direction variable de 190º à 250º)
Visibilité > 10 km
Nuages épars à 4500 pieds - Ciel 75% couvert à 6000 pieds
Température: +19ºC - Point de rosée: +08ºC - QNH: 1002 hPa
Pas de changement significatif prévu dans les 2 heures qui suivent l'observation